sensor_id;sensor_type;location;lat;lon;timestamp;P1;durP1;ratioP1;P2;durP2;ratioP2
2386;SDS011;49473;50.772;8.768;2023-04-01T00:00:48;6.80;;;1.33;;
2386;SDS011;49473;50.772;8.768;2023-04-01T00:03:17;7.43;;;1.70;;
2386;SDS011;49473;50.772;8.768;2023-04-01T00:05:44;2.87;;;1.70;;
2386;SDS011;49473;50.772;8.768;2023-04-01T00:08:12;4.17;;;1.90;;
2386;SDS011;49473;50.772;8.768;2023-04-01T00:10:39;3.73;;;1.60;;
2386;SDS011;49473;50.772;8.768;2023-04-01T00:13:06;2.03;;;1.80;;
2386;SDS011;49473;50.772;8.768;2023-04-01T00:15:33;6.80;;;1.93;;
2386;SDS011;49473;50.772;8.768;2023-04-01T00:18:00;3.67;;;1.70;;
2386;SDS011;49473;50.772;8.768;2023-04-01T00:20:27;6.40;;;1.73;;
2386;SDS011;49473;50.772;8.768;2023-04-01T00:22:54;3.33;;;1.00;;
2386;SDS011;49473;50.772;8.768;2023-04-01T00:25:22;4.57;;;1.67;;
2386;SDS011;49473;50.772;8.768;2023-04-01T00:27:49;1.70;;;0.97;;
2386;SDS011;49473;50.772;8.768;2023-04-01T00:30:16;2.07;;;1.77;;
2386;SDS011;49473;50.772;8.768;2023-04-01T00:32:43;2.77;;;1.40;;
2386;SDS011;49473;50.772;8.768;2023-04-01T00:35:10;5.10;;;2.00;;
2386;SDS011;49473;50.772;8.768;2023-04-01T00:37:37;2.17;;;1.23;;
2386;SDS011;49473;50.772;8.768;2023-04-01T00:40:05;4.03;;;1.90;;
2386;SDS011;49473;50.772;8.768;2023-04-01T00:42:35;6.23;;;1.57;;
2386;SDS011;49473;50.772;8.768;2023-04-01T00:47:51;2.67;;;2.33;;
2386;SDS011;49473;50.772;8.768;2023-04-01T00:50:18;5.73;;;3.47;;
2386;SDS011;49473;50.772;8.768;2023-04-01T00:52:45;4.00;;;3.17;;
2386;SDS011;49473;50.772;8.768;2023-04-01T00:55:12;3.13;;;2.13;;
2386;SDS011;49473;50.772;8.768;2023-04-01T00:57:42;4.10;;;2.27;;
2386;SDS011;49473;50.772;8.768;2023-04-01T01:00:11;3.10;;;2.23;;
2386;SDS011;49473;50.772;8.768;2023-04-01T01:02:42;5.73;;;2.47;;
2386;SDS011;49473;50.772;8.768;2023-04-01T01:05:11;3.73;;;2.27;;
2386;SDS011;49473;50.772;8.768;2023-04-01T01:07:39;4.37;;;1.67;;
2386;SDS011;49473;50.772;8.768;2023-04-01T01:10:10;3.10;;;1.60;;
2386;SDS011;49473;50.772;8.768;2023-04-01T01:12:46;2.70;;;1.57;;
2386;SDS011;49473;50.772;8.768;2023-04-01T01:15:21;8.10;;;1.90;;
2386;SDS011;49473;50.772;8.768;2023-04-01T01:17:54;5.07;;;2.00;;
2386;SDS011;49473;50.772;8.768;2023-04-01T01:26:36;5.67;;;2.20;;
2386;SDS011;49473;50.772;8.768;2023-04-01T01:29:16;6.00;;;1.40;;
2386;SDS011;49473;50.772;8.768;2023-04-01T01:32:05;2.03;;;1.67;;
2386;SDS011;49473;50.772;8.768;2023-04-01T01:34:39;2.37;;;1.03;;
2386;SDS011;49473;50.772;8.768;2023-04-01T01:37:14;3.20;;;1.77;;
2386;SDS011;49473;50.772;8.768;2023-04-01T01:39:43;2.80;;;1.37;;
2386;SDS011;49473;50.772;8.768;2023-04-01T01:42:13;3.23;;;1.90;;
2386;SDS011;49473;50.772;8.768;2023-04-01T01:44:43;2.77;;;2.00;;
2386;SDS011;49473;50.772;8.768;2023-04-01T01:47:11;1.50;;;1.23;;
2386;SDS011;49473;50.772;8.768;2023-04-01T01:49:40;3.10;;;1.20;;
2386;SDS011;49473;50.772;8.768;2023-04-01T01:52:09;2.50;;;1.40;;
2386;SDS011;49473;50.772;8.768;2023-04-01T01:54:46;3.27;;;1.53;;
2386;SDS011;49473;50.772;8.768;2023-04-01T01:57:13;5.33;;;1.90;;
2386;SDS011;49473;50.772;8.768;2023-04-01T01:59:42;4.00;;;2.17;;
2386;SDS011;49473;50.772;8.768;2023-04-01T02:02:11;4.33;;;1.83;;
2386;SDS011;49473;50.772;8.768;2023-04-01T02:04:42;1.47;;;1.37;;
2386;SDS011;49473;50.772;8.768;2023-04-01T02:07:12;2.50;;;1.33;;
2386;SDS011;49473;50.772;8.768;2023-04-01T02:09:44;4.87;;;1.60;;
2386;SDS011;49473;50.772;8.768;2023-04-01T02:12:12;3.10;;;1.50;;
2386;SDS011;49473;50.772;8.768;2023-04-01T02:14:43;2.67;;;1.50;;
2386;SDS011;49473;50.772;8.768;2023-04-01T02:17:14;1.60;;;1.10;;
2386;SDS011;49473;50.772;8.768;2023-04-01T02:19:44;2.93;;;1.33;;
2386;SDS011;49473;50.772;8.768;2023-04-01T02:22:15;1.97;;;1.37;;
2386;SDS011;49473;50.772;8.768;2023-04-01T02:24:47;3.27;;;1.50;;
2386;SDS011;49473;50.772;8.768;2023-04-01T02:27:16;2.90;;;1.03;;
2386;SDS011;49473;50.772;8.768;2023-04-01T02:29:43;2.67;;;1.00;;
2386;SDS011;49473;50.772;8.768;2023-04-01T02:32:10;2.57;;;0.73;;
2386;SDS011;49473;50.772;8.768;2023-04-01T02:34:38;1.97;;;1.70;;
2386;SDS011;49473;50.772;8.768;2023-04-01T02:37:06;2.87;;;1.40;;
2386;SDS011;49473;50.772;8.768;2023-04-01T02:39:33;3.10;;;1.40;;
2386;SDS011;49473;50.772;8.768;2023-04-01T02:42:01;3.67;;;1.43;;
2386;SDS011;49473;50.772;8.768;2023-04-01T02:44:28;1.67;;;0.70;;
2386;SDS011;49473;50.772;8.768;2023-04-01T02:46:55;2.20;;;1.20;;
2386;SDS011;49473;50.772;8.768;2023-04-01T02:49:22;2.23;;;1.27;;
2386;SDS011;49473;50.772;8.768;2023-04-01T02:51:48;2.17;;;0.90;;
2386;SDS011;49473;50.772;8.768;2023-04-01T02:54:16;4.27;;;1.17;;
2386;SDS011;49473;50.772;8.768;2023-04-01T02:56:43;1.10;;;0.97;;
2386;SDS011;49473;50.772;8.768;2023-04-01T02:59:11;3.00;;;1.07;;
2386;SDS011;49473;50.772;8.768;2023-04-01T03:01:38;2.20;;;1.00;;
2386;SDS011;49473;50.772;8.768;2023-04-01T03:04:05;3.80;;;1.00;;
2386;SDS011;49473;50.772;8.768;2023-04-01T03:06:32;2.57;;;1.00;;
2386;SDS011;49473;50.772;8.768;2023-04-01T03:08:58;3.53;;;1.10;;
2386;SDS011;49473;50.772;8.768;2023-04-01T03:11:25;1.13;;;0.70;;
2386;SDS011;49473;50.772;8.768;2023-04-01T03:13:52;1.90;;;0.60;;
2386;SDS011;49473;50.772;8.768;2023-04-01T03:16:20;1.63;;;0.70;;
2386;SDS011;49473;50.772;8.768;2023-04-01T03:18:47;6.53;;;0.80;;
2386;SDS011;49473;50.772;8.768;2023-04-01T03:21:16;2.33;;;0.90;;
2386;SDS011;49473;50.772;8.768;2023-04-01T03:23:44;4.40;;;0.97;;
2386;SDS011;49473;50.772;8.768;2023-04-01T03:26:11;4.23;;;1.13;;
2386;SDS011;49473;50.772;8.768;2023-04-01T03:28:38;2.10;;;0.90;;
2386;SDS011;49473;50.772;8.768;2023-04-01T03:31:05;1.80;;;1.27;;
2386;SDS011;49473;50.772;8.768;2023-04-01T03:33:33;2.40;;;1.10;;
2386;SDS011;49473;50.772;8.768;2023-04-01T03:36:00;3.17;;;1.60;;
2386;SDS011;49473;50.772;8.768;2023-04-01T03:38:28;3.80;;;1.63;;
2386;SDS011;49473;50.772;8.768;2023-04-01T03:40:55;2.10;;;1.90;;
2386;SDS011;49473;50.772;8.768;2023-04-01T03:43:21;3.53;;;1.77;;
2386;SDS011;49473;50.772;8.768;2023-04-01T03:45:49;2.10;;;2.00;;
2386;SDS011;49473;50.772;8.768;2023-04-01T03:48:17;2.60;;;1.60;;
2386;SDS011;49473;50.772;8.768;2023-04-01T03:50:46;5.93;;;2.00;;
2386;SDS011;49473;50.772;8.768;2023-04-01T03:53:13;3.60;;;2.20;;
2386;SDS011;49473;50.772;8.768;2023-04-01T03:55:40;1.70;;;1.60;;
2386;SDS011;49473;50.772;8.768;2023-04-01T03:58:07;4.70;;;1.90;;
2386;SDS011;49473;50.772;8.768;2023-04-01T04:00:34;3.73;;;2.00;;
2386;SDS011;49473;50.772;8.768;2023-04-01T04:03:01;2.13;;;1.97;;
2386;SDS011;49473;50.772;8.768;2023-04-01T04:05:28;3.77;;;1.93;;
2386;SDS011;49473;50.772;8.768;2023-04-01T04:07:57;6.87;;;2.30;;
2386;SDS011;49473;50.772;8.768;2023-04-01T04:10:24;5.60;;;2.70;;
2386;SDS011;49473;50.772;8.768;2023-04-01T04:12:51;2.40;;;2.17;;
2386;SDS011;49473;50.772;8.768;2023-04-01T04:15:18;3.40;;;2.43;;
2386;SDS011;49473;50.772;8.768;2023-04-01T04:17:45;4.30;;;2.47;;
2386;SDS011;49473;50.772;8.768;2023-04-01T04:20:12;6.97;;;2.80;;
2386;SDS011;49473;50.772;8.768;2023-04-01T04:22:39;3.00;;;2.37;;
2386;SDS011;49473;50.772;8.768;2023-04-01T04:25:07;3.60;;;2.50;;
2386;SDS011;49473;50.772;8.768;2023-04-01T04:27:35;2.80;;;2.23;;
2386;SDS011;49473;50.772;8.768;2023-04-01T04:30:02;4.33;;;2.60;;
2386;SDS011;49473;50.772;8.768;2023-04-01T04:32:29;7.37;;;2.43;;
2386;SDS011;49473;50.772;8.768;2023-04-01T04:34:56;2.23;;;2.13;;
2386;SDS011;49473;50.772;8.768;2023-04-01T04:37:23;3.13;;;2.23;;
2386;SDS011;49473;50.772;8.768;2023-04-01T04:39:50;3.47;;;2.60;;
2386;SDS011;49473;50.772;8.768;2023-04-01T04:42:19;2.83;;;2.63;;
2386;SDS011;49473;50.772;8.768;2023-04-01T04:44:45;2.37;;;2.20;;
2386;SDS011;49473;50.772;8.768;2023-04-01T04:47:12;2.10;;;1.90;;
2386;SDS011;49473;50.772;8.768;2023-04-01T04:49:39;4.30;;;2.50;;
2386;SDS011;49473;50.772;8.768;2023-04-01T04:52:06;3.00;;;1.50;;
2386;SDS011;49473;50.772;8.768;2023-04-01T04:54:32;1.70;;;1.50;;
2386;SDS011;49473;50.772;8.768;2023-04-01T04:56:59;3.50;;;1.60;;
2386;SDS011;49473;50.772;8.768;2023-04-01T04:59:27;1.73;;;1.40;;
2386;SDS011;49473;50.772;8.768;2023-04-01T05:01:54;2.60;;;1.23;;
2386;SDS011;49473;50.772;8.768;2023-04-01T05:04:21;2.80;;;0.70;;
2386;SDS011;49473;50.772;8.768;2023-04-01T05:06:48;3.23;;;0.77;;
2386;SDS011;49473;50.772;8.768;2023-04-01T05:09:14;1.73;;;0.90;;
2386;SDS011;49473;50.772;8.768;2023-04-01T05:11:41;2.70;;;1.20;;
2386;SDS011;49473;50.772;8.768;2023-04-01T05:14:11;1.33;;;1.00;;
2386;SDS011;49473;50.772;8.768;2023-04-01T05:16:40;3.07;;;1.30;;
2386;SDS011;49473;50.772;8.768;2023-04-01T05:19:07;2.53;;;1.13;;
2386;SDS011;49473;50.772;8.768;2023-04-01T05:21:33;3.57;;;1.60;;
2386;SDS011;49473;50.772;8.768;2023-04-01T05:24:00;3.00;;;1.90;;
2386;SDS011;49473;50.772;8.768;2023-04-01T05:26:27;2.40;;;1.83;;
2386;SDS011;49473;50.772;8.768;2023-04-01T05:28:54;2.70;;;1.80;;
2386;SDS011;49473;50.772;8.768;2023-04-01T05:31:20;1.63;;;1.17;;
2386;SDS011;49473;50.772;8.768;2023-04-01T05:33:50;3.53;;;2.00;;
2386;SDS011;49473;50.772;8.768;2023-04-01T05:36:17;2.30;;;1.90;;
2386;SDS011;49473;50.772;8.768;2023-04-01T05:38:43;2.17;;;1.77;;
2386;SDS011;49473;50.772;8.768;2023-04-01T05:41:12;2.23;;;1.90;;
2386;SDS011;49473;50.772;8.768;2023-04-01T05:43:39;2.33;;;2.13;;
2386;SDS011;49473;50.772;8.768;2023-04-01T05:46:07;1.80;;;1.70;;
2386;SDS011;49473;50.772;8.768;2023-04-01T05:48:34;3.10;;;2.43;;
2386;SDS011;49473;50.772;8.768;2023-04-01T05:51:03;4.47;;;3.60;;
2386;SDS011;49473;50.772;8.768;2023-04-01T05:53:30;5.80;;;3.67;;
2386;SDS011;49473;50.772;8.768;2023-04-01T05:55:57;6.50;;;3.90;;
2386;SDS011;49473;50.772;8.768;2023-04-01T05:58:28;6.07;;;3.57;;
2386;SDS011;49473;50.772;8.768;2023-04-01T06:00:59;8.53;;;4.80;;
2386;SDS011;49473;50.772;8.768;2023-04-01T06:03:28;3.17;;;1.90;;
2386;SDS011;49473;50.772;8.768;2023-04-01T06:05:54;7.00;;;4.27;;
2386;SDS011;49473;50.772;8.768;2023-04-01T06:08:23;2.47;;;2.27;;
2386;SDS011;49473;50.772;8.768;2023-04-01T06:10:57;3.17;;;2.43;;
2386;SDS011;49473;50.772;8.768;2023-04-01T06:13:34;3.67;;;2.27;;
2386;SDS011;49473;50.772;8.768;2023-04-01T06:16:20;3.30;;;1.70;;
2386;SDS011;49473;50.772;8.768;2023-04-01T06:18:56;1.87;;;1.57;;
2386;SDS011;49473;50.772;8.768;2023-04-01T06:24:55;3.43;;;1.53;;
2386;SDS011;49473;50.772;8.768;2023-04-01T06:27:41;1.53;;;1.27;;
2386;SDS011;49473;50.772;8.768;2023-04-01T06:30:31;3.13;;;1.20;;
2386;SDS011;49473;50.772;8.768;2023-04-01T06:33:05;3.73;;;0.63;;
2386;SDS011;49473;50.772;8.768;2023-04-01T06:36:01;1.77;;;0.90;;
2386;SDS011;49473;50.772;8.768;2023-04-01T06:38:55;1.33;;;0.60;;
2386;SDS011;49473;50.772;8.768;2023-04-01T06:41:37;2.00;;;0.67;;
2386;SDS011;49473;50.772;8.768;2023-04-01T06:44:18;1.13;;;0.60;;
2386;SDS011;49473;50.772;8.768;2023-04-01T06:46:52;1.23;;;0.80;;
2386;SDS011;49473;50.772;8.768;2023-04-01T06:49:31;1.47;;;1.00;;
2386;SDS011;49473;50.772;8.768;2023-04-01T06:52:03;1.47;;;0.50;;
2386;SDS011;49473;50.772;8.768;2023-04-01T06:54:38;1.13;;;0.80;;
2386;SDS011;49473;50.772;8.768;2023-04-01T06:57:13;1.07;;;0.60;;
2386;SDS011;49473;50.772;8.768;2023-04-01T06:59:48;0.60;;;0.60;;
2386;SDS011;49473;50.772;8.768;2023-04-01T07:02:18;0.73;;;0.60;;
2386;SDS011;49473;50.772;8.768;2023-04-01T07:04:51;1.33;;;0.90;;
2386;SDS011;49473;50.772;8.768;2023-04-01T07:07:24;1.03;;;0.60;;
2386;SDS011;49473;50.772;8.768;2023-04-01T07:09:57;2.53;;;0.60;;
2386;SDS011;49473;50.772;8.768;2023-04-01T07:12:30;0.60;;;0.57;;
2386;SDS011;49473;50.772;8.768;2023-04-01T07:15:11;0.60;;;0.60;;
2386;SDS011;49473;50.772;8.768;2023-04-01T07:17:43;0.83;;;0.50;;
2386;SDS011;49473;50.772;8.768;2023-04-01T07:20:13;3.40;;;0.87;;
2386;SDS011;49473;50.772;8.768;2023-04-01T07:22:46;1.83;;;1.00;;
2386;SDS011;49473;50.772;8.768;2023-04-01T07:25:15;3.23;;;0.83;;
2386;SDS011;49473;50.772;8.768;2023-04-01T07:27:45;2.00;;;0.80;;
2386;SDS011;49473;50.772;8.768;2023-04-01T07:30:14;1.83;;;1.57;;
2386;SDS011;49473;50.772;8.768;2023-04-01T07:32:44;3.60;;;2.33;;
2386;SDS011;49473;50.772;8.768;2023-04-01T07:35:17;4.23;;;0.80;;
2386;SDS011;49473;50.772;8.768;2023-04-01T07:37:57;1.27;;;0.93;;
2386;SDS011;49473;50.772;8.768;2023-04-01T07:40:33;1.30;;;0.80;;
2386;SDS011;49473;50.772;8.768;2023-04-01T07:43:13;0.73;;;0.73;;
2386;SDS011;49473;50.772;8.768;2023-04-01T07:46:02;2.73;;;0.80;;
2386;SDS011;49473;50.772;8.768;2023-04-01T07:48:38;1.67;;;0.60;;
2386;SDS011;49473;50.772;8.768;2023-04-01T07:51:13;1.00;;;0.80;;
2386;SDS011;49473;50.772;8.768;2023-04-01T07:53:43;2.30;;;0.80;;
2386;SDS011;49473;50.772;8.768;2023-04-01T07:56:17;2.17;;;1.00;;
2386;SDS011;49473;50.772;8.768;2023-04-01T07:58:54;1.10;;;0.80;;
2386;SDS011;49473;50.772;8.768;2023-04-01T08:01:28;1.20;;;0.60;;
2386;SDS011;49473;50.772;8.768;2023-04-01T08:04:03;0.53;;;0.53;;
2386;SDS011;49473;50.772;8.768;2023-04-01T08:06:42;1.40;;;0.87;;
2386;SDS011;49473;50.772;8.768;2023-04-01T08:09:15;0.43;;;0.40;;
2386;SDS011;49473;50.772;8.768;2023-04-01T08:11:53;1.23;;;0.60;;
2386;SDS011;49473;50.772;8.768;2023-04-01T08:14:33;1.10;;;0.53;;
2386;SDS011;49473;50.772;8.768;2023-04-01T08:17:10;0.80;;;0.50;;
2386;SDS011;49473;50.772;8.768;2023-04-01T08:19:52;0.50;;;0.50;;
2386;SDS011;49473;50.772;8.768;2023-04-01T08:22:29;1.33;;;0.50;;
2386;SDS011;49473;50.772;8.768;2023-04-01T08:25:00;0.60;;;0.60;;
2386;SDS011;49473;50.772;8.768;2023-04-01T08:27:34;1.00;;;0.50;;
2386;SDS011;49473;50.772;8.768;2023-04-01T08:30:06;0.60;;;0.60;;
2386;SDS011;49473;50.772;8.768;2023-04-01T08:32:44;1.67;;;0.67;;
2386;SDS011;49473;50.772;8.768;2023-04-01T08:35:17;0.67;;;0.50;;
2386;SDS011;49473;50.772;8.768;2023-04-01T08:37:50;1.50;;;0.50;;
2386;SDS011;49473;50.772;8.768;2023-04-01T08:40:35;1.13;;;0.67;;
2386;SDS011;49473;50.772;8.768;2023-04-01T08:43:16;2.53;;;0.50;;
2386;SDS011;49473;50.772;8.768;2023-04-01T08:46:02;0.60;;;0.53;;
2386;SDS011;49473;50.772;8.768;2023-04-01T08:51:47;0.60;;;0.50;;
2386;SDS011;49473;50.772;8.768;2023-04-01T08:54:37;0.60;;;0.53;;
2386;SDS011;49473;50.772;8.768;2023-04-01T08:57:15;1.10;;;0.50;;
2386;SDS011;49473;50.772;8.768;2023-04-01T08:59:57;0.60;;;0.60;;
2386;SDS011;49473;50.772;8.768;2023-04-01T09:02:43;0.47;;;0.47;;
2386;SDS011;49473;50.772;8.768;2023-04-01T09:05:24;1.37;;;0.50;;
2386;SDS011;49473;50.772;8.768;2023-04-01T09:11:05;2.00;;;0.40;;
2386;SDS011;49473;50.772;8.768;2023-04-01T09:13:42;0.57;;;0.57;;
2386;SDS011;49473;50.772;8.768;2023-04-01T09:16:20;1.00;;;0.70;;
2386;SDS011;49473;50.772;8.768;2023-04-01T09:19:00;0.47;;;0.43;;
2386;SDS011;49473;50.772;8.768;2023-04-01T09:21:57;0.53;;;0.50;;
2386;SDS011;49473;50.772;8.768;2023-04-01T09:24:46;0.40;;;0.40;;
2386;SDS011;49473;50.772;8.768;2023-04-01T09:27:34;0.80;;;0.50;;
2386;SDS011;49473;50.772;8.768;2023-04-01T09:33:32;1.60;;;0.40;;
2386;SDS011;49473;50.772;8.768;2023-04-01T09:36:44;0.40;;;0.40;;
2386;SDS011;49473;50.772;8.768;2023-04-01T09:42:15;1.33;;;0.50;;
2386;SDS011;49473;50.772;8.768;2023-04-01T09:44:57;0.67;;;0.50;;
2386;SDS011;49473;50.772;8.768;2023-04-01T09:47:29;0.30;;;0.30;;
2386;SDS011;49473;50.772;8.768;2023-04-01T09:53:11;0.90;;;0.50;;
2386;SDS011;49473;50.772;8.768;2023-04-01T09:55:54;0.50;;;0.40;;
2386;SDS011;49473;50.772;8.768;2023-04-01T09:58:46;0.40;;;0.40;;
2386;SDS011;49473;50.772;8.768;2023-04-01T10:01:37;0.30;;;0.30;;
2386;SDS011;49473;50.772;8.768;2023-04-01T10:04:17;0.40;;;0.30;;
2386;SDS011;49473;50.772;8.768;2023-04-01T10:07:06;0.40;;;0.30;;
2386;SDS011;49473;50.772;8.768;2023-04-01T10:13:11;0.47;;;0.40;;
2386;SDS011;49473;50.772;8.768;2023-04-01T10:22:39;0.60;;;0.60;;
2386;SDS011;49473;50.772;8.768;2023-04-01T10:25:38;2.20;;;2.10;;
2386;SDS011;49473;50.772;8.768;2023-04-01T10:28:30;3.63;;;2.17;;
2386;SDS011;49473;50.772;8.768;2023-04-01T10:31:21;2.30;;;2.03;;
2386;SDS011;49473;50.772;8.768;2023-04-01T10:34:18;1.20;;;1.10;;
2386;SDS011;49473;50.772;8.768;2023-04-01T10:37:06;1.60;;;1.50;;
2386;SDS011;49473;50.772;8.768;2023-04-01T10:42:50;2.23;;;2.13;;
2386;SDS011;49473;50.772;8.768;2023-04-01T10:51:39;1.53;;;1.40;;
2386;SDS011;49473;50.772;8.768;2023-04-01T10:54:40;3.13;;;1.77;;
2386;SDS011;49473;50.772;8.768;2023-04-01T10:57:19;1.40;;;1.30;;
2386;SDS011;49473;50.772;8.768;2023-04-01T11:00:31;2.40;;;2.20;;
2386;SDS011;49473;50.772;8.768;2023-04-01T11:06:26;8.07;;;7.10;;
2386;SDS011;49473;50.772;8.768;2023-04-01T11:09:26;2.50;;;2.30;;
2386;SDS011;49473;50.772;8.768;2023-04-01T11:12:27;4.90;;;2.30;;
2386;SDS011;49473;50.772;8.768;2023-04-01T11:15:30;2.73;;;2.10;;
2386;SDS011;49473;50.772;8.768;2023-04-01T11:18:31;6.03;;;2.40;;
2386;SDS011;49473;50.772;8.768;2023-04-01T11:24:32;2.30;;;2.20;;
2386;SDS011;49473;50.772;8.768;2023-04-01T11:27:15;2.40;;;2.30;;
2386;SDS011;49473;50.772;8.768;2023-04-01T11:32:56;2.80;;;2.60;;
2386;SDS011;49473;50.772;8.768;2023-04-01T11:38:31;3.50;;;3.20;;
2386;SDS011;49473;50.772;8.768;2023-04-01T11:41:13;3.00;;;2.80;;
2386;SDS011;49473;50.772;8.768;2023-04-01T11:43:49;3.10;;;2.80;;
2386;SDS011;49473;50.772;8.768;2023-04-01T11:46:30;2.80;;;2.60;;
2386;SDS011;49473;50.772;8.768;2023-04-01T11:49:07;2.60;;;2.40;;
2386;SDS011;49473;50.772;8.768;2023-04-01T11:51:53;3.80;;;2.57;;
2386;SDS011;49473;50.772;8.768;2023-04-01T11:54:36;3.23;;;2.50;;
2386;SDS011;49473;50.772;8.768;2023-04-01T11:57:26;6.03;;;3.10;;
2386;SDS011;49473;50.772;8.768;2023-04-01T12:00:15;3.10;;;2.80;;
2386;SDS011;49473;50.772;8.768;2023-04-01T12:03:14;2.53;;;2.33;;
2386;SDS011;49473;50.772;8.768;2023-04-01T12:06:01;3.40;;;2.47;;
2386;SDS011;49473;50.772;8.768;2023-04-01T12:08:37;2.80;;;2.47;;
2386;SDS011;49473;50.772;8.768;2023-04-01T12:11:12;2.77;;;2.47;;
2386;SDS011;49473;50.772;8.768;2023-04-01T12:13:49;2.77;;;2.57;;
2386;SDS011;49473;50.772;8.768;2023-04-01T12:16:25;2.70;;;2.50;;
2386;SDS011;49473;50.772;8.768;2023-04-01T12:19:10;2.80;;;2.57;;
2386;SDS011;49473;50.772;8.768;2023-04-01T12:21:45;2.50;;;2.40;;
2386;SDS011;49473;50.772;8.768;2023-04-01T12:27:16;2.50;;;2.40;;
2386;SDS011;49473;50.772;8.768;2023-04-01T12:30:02;2.73;;;2.40;;
2386;SDS011;49473;50.772;8.768;2023-04-01T12:32:40;2.70;;;2.50;;
2386;SDS011;49473;50.772;8.768;2023-04-01T12:35:16;2.37;;;2.27;;
2386;SDS011;49473;50.772;8.768;2023-04-01T12:37:49;1.63;;;1.53;;
2386;SDS011;49473;50.772;8.768;2023-04-01T12:40:26;0.80;;;0.80;;
2386;SDS011;49473;50.772;8.768;2023-04-01T12:43:08;1.30;;;1.30;;
2386;SDS011;49473;50.772;8.768;2023-04-01T12:46:08;1.77;;;1.67;;
2386;SDS011;49473;50.772;8.768;2023-04-01T12:48:57;2.40;;;2.30;;
2386;SDS011;49473;50.772;8.768;2023-04-01T12:51:37;2.40;;;2.30;;
2386;SDS011;49473;50.772;8.768;2023-04-01T13:00:27;3.00;;;2.80;;
2386;SDS011;49473;50.772;8.768;2023-04-01T13:03:17;2.60;;;2.40;;
2386;SDS011;49473;50.772;8.768;2023-04-01T13:08:53;2.70;;;2.50;;
2386;SDS011;49473;50.772;8.768;2023-04-01T13:11:28;2.90;;;2.70;;
2386;SDS011;49473;50.772;8.768;2023-04-01T13:14:13;5.77;;;5.27;;
2386;SDS011;49473;50.772;8.768;2023-04-01T13:16:57;2.40;;;2.30;;
2386;SDS011;49473;50.772;8.768;2023-04-01T13:19:30;1.67;;;1.57;;
2386;SDS011;49473;50.772;8.768;2023-04-01T13:22:04;1.30;;;1.30;;
2386;SDS011;49473;50.772;8.768;2023-04-01T13:24:41;3.07;;;2.87;;
2386;SDS011;49473;50.772;8.768;2023-04-01T13:27:14;3.53;;;2.60;;
2386;SDS011;49473;50.772;8.768;2023-04-01T13:29:57;2.00;;;1.90;;
2386;SDS011;49473;50.772;8.768;2023-04-01T13:32:33;1.43;;;1.43;;
2386;SDS011;49473;50.772;8.768;2023-04-01T13:35:11;1.07;;;0.87;;
2386;SDS011;49473;50.772;8.768;2023-04-01T13:37:51;1.43;;;1.33;;
2386;SDS011;49473;50.772;8.768;2023-04-01T13:40:38;2.37;;;2.27;;
2386;SDS011;49473;50.772;8.768;2023-04-01T13:43:11;2.10;;;2.00;;
2386;SDS011;49473;50.772;8.768;2023-04-01T13:48:50;2.90;;;2.70;;
2386;SDS011;49473;50.772;8.768;2023-04-01T13:51:50;1.80;;;1.70;;
2386;SDS011;49473;50.772;8.768;2023-04-01T13:54:29;1.43;;;1.43;;
2386;SDS011;49473;50.772;8.768;2023-04-01T13:57:14;1.23;;;1.10;;
2386;SDS011;49473;50.772;8.768;2023-04-01T13:59:55;1.43;;;1.40;;
2386;SDS011;49473;50.772;8.768;2023-04-01T14:02:35;1.20;;;1.20;;
2386;SDS011;49473;50.772;8.768;2023-04-01T14:05:40;1.70;;;1.60;;
2386;SDS011;49473;50.772;8.768;2023-04-01T14:11:11;2.10;;;2.00;;
2386;SDS011;49473;50.772;8.768;2023-04-01T14:13:46;1.70;;;1.60;;
2386;SDS011;49473;50.772;8.768;2023-04-01T14:16:29;1.93;;;1.83;;
2386;SDS011;49473;50.772;8.768;2023-04-01T14:19:12;2.00;;;1.90;;
2386;SDS011;49473;50.772;8.768;2023-04-01T14:21:55;2.43;;;2.33;;
2386;SDS011;49473;50.772;8.768;2023-04-01T14:24:32;2.20;;;2.10;;
2386;SDS011;49473;50.772;8.768;2023-04-01T14:27:25;2.37;;;2.27;;
2386;SDS011;49473;50.772;8.768;2023-04-01T14:33:18;1.77;;;1.67;;
2386;SDS011;49473;50.772;8.768;2023-04-01T14:35:58;3.33;;;2.10;;
2386;SDS011;49473;50.772;8.768;2023-04-01T14:38:35;2.20;;;2.10;;
2386;SDS011;49473;50.772;8.768;2023-04-01T14:41:16;2.20;;;1.93;;
2386;SDS011;49473;50.772;8.768;2023-04-01T14:43:47;2.07;;;1.97;;
2386;SDS011;49473;50.772;8.768;2023-04-01T14:46:48;2.20;;;2.00;;
2386;SDS011;49473;50.772;8.768;2023-04-01T14:49:39;2.20;;;2.10;;
2386;SDS011;49473;50.772;8.768;2023-04-01T14:52:10;2.50;;;2.40;;
2386;SDS011;49473;50.772;8.768;2023-04-01T14:54:41;2.23;;;2.13;;
2386;SDS011;49473;50.772;8.768;2023-04-01T14:57:10;2.30;;;2.20;;
2386;SDS011;49473;50.772;8.768;2023-04-01T14:59:39;2.47;;;2.37;;
2386;SDS011;49473;50.772;8.768;2023-04-01T15:02:15;2.20;;;2.10;;
2386;SDS011;49473;50.772;8.768;2023-04-01T15:05:00;2.77;;;2.57;;
2386;SDS011;49473;50.772;8.768;2023-04-01T15:10:43;3.00;;;2.70;;
2386;SDS011;49473;50.772;8.768;2023-04-01T15:13:27;2.20;;;2.10;;
2386;SDS011;49473;50.772;8.768;2023-04-01T15:16:17;2.03;;;1.93;;
2386;SDS011;49473;50.772;8.768;2023-04-01T15:18:50;1.97;;;1.87;;
2386;SDS011;49473;50.772;8.768;2023-04-01T15:24:15;1.97;;;1.87;;
2386;SDS011;49473;50.772;8.768;2023-04-01T15:26:54;2.03;;;1.93;;
2386;SDS011;49473;50.772;8.768;2023-04-01T15:29:47;2.83;;;1.97;;
2386;SDS011;49473;50.772;8.768;2023-04-01T15:32:30;1.80;;;1.70;;
2386;SDS011;49473;50.772;8.768;2023-04-01T15:35:14;2.00;;;1.90;;
2386;SDS011;49473;50.772;8.768;2023-04-01T15:37:54;1.87;;;1.77;;
2386;SDS011;49473;50.772;8.768;2023-04-01T15:40:23;1.73;;;1.70;;
2386;SDS011;49473;50.772;8.768;2023-04-01T15:42:57;2.03;;;1.93;;
2386;SDS011;49473;50.772;8.768;2023-04-01T15:45:40;1.57;;;1.50;;
2386;SDS011;49473;50.772;8.768;2023-04-01T15:48:27;1.90;;;1.80;;
2386;SDS011;49473;50.772;8.768;2023-04-01T15:54:21;2.17;;;2.07;;
2386;SDS011;49473;50.772;8.768;2023-04-01T15:57:15;2.73;;;2.53;;
2386;SDS011;49473;50.772;8.768;2023-04-01T15:59:58;2.83;;;2.63;;
2386;SDS011;49473;50.772;8.768;2023-04-01T16:02:36;2.67;;;2.47;;
2386;SDS011;49473;50.772;8.768;2023-04-01T16:05:11;2.63;;;2.53;;
2386;SDS011;49473;50.772;8.768;2023-04-01T16:08:05;2.67;;;2.57;;
2386;SDS011;49473;50.772;8.768;2023-04-01T16:10:46;2.43;;;2.23;;
2386;SDS011;49473;50.772;8.768;2023-04-01T16:13:28;2.20;;;2.10;;
2386;SDS011;49473;50.772;8.768;2023-04-01T16:16:10;2.00;;;1.90;;
2386;SDS011;49473;50.772;8.768;2023-04-01T16:18:54;2.40;;;2.30;;
2386;SDS011;49473;50.772;8.768;2023-04-01T16:21:41;1.30;;;1.30;;
2386;SDS011;49473;50.772;8.768;2023-04-01T16:24:13;2.30;;;2.20;;
2386;SDS011;49473;50.772;8.768;2023-04-01T16:26:50;2.40;;;2.30;;
2386;SDS011;49473;50.772;8.768;2023-04-01T16:29:21;2.57;;;2.37;;
2386;SDS011;49473;50.772;8.768;2023-04-01T16:32:00;1.57;;;1.57;;
2386;SDS011;49473;50.772;8.768;2023-04-01T16:34:41;2.80;;;2.60;;
2386;SDS011;49473;50.772;8.768;2023-04-01T16:37:12;3.10;;;2.80;;
2386;SDS011;49473;50.772;8.768;2023-04-01T16:39:44;2.80;;;2.60;;
2386;SDS011;49473;50.772;8.768;2023-04-01T16:42:22;2.80;;;2.60;;
2386;SDS011;49473;50.772;8.768;2023-04-01T16:44:59;3.10;;;2.90;;
2386;SDS011;49473;50.772;8.768;2023-04-01T16:47:29;3.30;;;3.03;;
2386;SDS011;49473;50.772;8.768;2023-04-01T16:49:59;3.13;;;2.90;;
2386;SDS011;49473;50.772;8.768;2023-04-01T16:52:40;2.60;;;2.40;;
2386;SDS011;49473;50.772;8.768;2023-04-01T16:55:24;2.53;;;2.43;;
2386;SDS011;49473;50.772;8.768;2023-04-01T16:58:03;2.70;;;2.50;;
2386;SDS011;49473;50.772;8.768;2023-04-01T17:00:36;2.00;;;1.90;;
2386;SDS011;49473;50.772;8.768;2023-04-01T17:03:08;1.73;;;1.63;;
2386;SDS011;49473;50.772;8.768;2023-04-01T17:05:49;2.30;;;2.20;;
2386;SDS011;49473;50.772;8.768;2023-04-01T17:08:28;2.73;;;2.53;;
2386;SDS011;49473;50.772;8.768;2023-04-01T17:11:05;2.40;;;2.30;;
2386;SDS011;49473;50.772;8.768;2023-04-01T17:13:43;2.07;;;1.97;;
2386;SDS011;49473;50.772;8.768;2023-04-01T17:16:20;2.23;;;2.10;;
2386;SDS011;49473;50.772;8.768;2023-04-01T17:19:12;2.13;;;2.03;;
2386;SDS011;49473;50.772;8.768;2023-04-01T17:21:50;2.50;;;2.40;;